sensor_id;sensor_type;location;lat;lon;timestamp;temperature;humidity
28175;SHT30;59417;44.788;10.334;2023-12-28T00:01:18;10.20;82.27
28175;SHT30;59417;44.788;10.334;2023-12-28T00:03:46;10.14;82.48
28175;SHT30;59417;44.788;10.334;2023-12-28T00:06:14;10.14;82.56
28175;SHT30;59417;44.788;10.334;2023-12-28T00:08:45;10.20;82.23
28175;SHT30;59417;44.788;10.334;2023-12-28T00:11:16;10.43;81.32
28175;SHT30;59417;44.788;10.334;2023-12-28T00:13:52;10.34;81.49
28175;SHT30;59417;44.788;10.334;2023-12-28T00:16:22;10.24;82.00
28175;SHT30;59417;44.788;10.334;2023-12-28T00:18:54;10.20;81.97
28175;SHT30;59417;44.788;10.334;2023-12-28T00:21:32;10.31;81.86
28175;SHT30;59417;44.788;10.334;2023-12-28T00:24:06;10.20;82.02
28175;SHT30;59417;44.788;10.334;2023-12-28T00:26:41;10.21;82.16
28175;SHT30;59417;44.788;10.334;2023-12-28T00:29:11;10.20;81.94
28175;SHT30;59417;44.788;10.334;2023-12-28T00:31:44;10.23;82.14
28175;SHT30;59417;44.788;10.334;2023-12-28T00:34:13;10.36;81.42
28175;SHT30;59417;44.788;10.334;2023-12-28T00:36:43;10.31;81.39
28175;SHT30;59417;44.788;10.334;2023-12-28T00:39:10;10.19;82.19
28175;SHT30;59417;44.788;10.334;2023-12-28T00:41:48;10.48;80.97
28175;SHT30;59417;44.788;10.334;2023-12-28T00:44:23;10.43;80.88
28175;SHT30;59417;44.788;10.334;2023-12-28T00:46:53;10.40;81.12
28175;SHT30;59417;44.788;10.334;2023-12-28T00:49:28;10.29;81.60
28175;SHT30;59417;44.788;10.334;2023-12-28T00:52:03;10.26;81.60
28175;SHT30;59417;44.788;10.334;2023-12-28T00:54:30;10.24;81.66
28175;SHT30;59417;44.788;10.334;2023-12-28T00:57:09;10.30;81.28
28175;SHT30;59417;44.788;10.334;2023-12-28T00:59:37;10.33;81.13
28175;SHT30;59417;44.788;10.334;2023-12-28T01:02:05;10.45;80.89
28175;SHT30;59417;44.788;10.334;2023-12-28T01:04:32;10.41;81.10
28175;SHT30;59417;44.788;10.334;2023-12-28T01:07:00;10.21;81.87
28175;SHT30;59417;44.788;10.334;2023-12-28T01:09:39;10.10;82.45
28175;SHT30;59417;44.788;10.334;2023-12-28T01:12:09;9.93;83.19
28175;SHT30;59417;44.788;10.334;2023-12-28T01:14:46;10.00;83.00
28175;SHT30;59417;44.788;10.334;2023-12-28T01:17:16;10.08;82.76
28175;SHT30;59417;44.788;10.334;2023-12-28T01:19:47;10.20;81.79
28175;SHT30;59417;44.788;10.334;2023-12-28T01:22:20;10.08;82.52
28175;SHT30;59417;44.788;10.334;2023-12-28T01:24:48;10.19;81.95
28175;SHT30;59417;44.788;10.334;2023-12-28T01:27:26;10.19;82.09
28175;SHT30;59417;44.788;10.334;2023-12-28T01:30:00;10.23;81.54
28175;SHT30;59417;44.788;10.334;2023-12-28T01:32:27;10.24;81.67
28175;SHT30;59417;44.788;10.334;2023-12-28T01:34:55;10.24;81.77
28175;SHT30;59417;44.788;10.334;2023-12-28T01:37:28;10.14;81.85
28175;SHT30;59417;44.788;10.334;2023-12-28T01:40:09;10.00;82.55
28175;SHT30;59417;44.788;10.334;2023-12-28T01:42:36;10.02;82.49
28175;SHT30;59417;44.788;10.334;2023-12-28T01:45:03;10.23;81.82
28175;SHT30;59417;44.788;10.334;2023-12-28T01:47:33;10.21;81.77
28175;SHT30;59417;44.788;10.334;2023-12-28T01:50:15;10.34;81.21
28175;SHT30;59417;44.788;10.334;2023-12-28T01:53:01;10.44;80.38
28175;SHT30;59417;44.788;10.334;2023-12-28T01:55:36;10.24;81.28
28175;SHT30;59417;44.788;10.334;2023-12-28T01:58:02;10.20;81.87
28175;SHT30;59417;44.788;10.334;2023-12-28T02:00:33;10.37;80.94
28175;SHT30;59417;44.788;10.334;2023-12-28T02:03:06;10.34;80.93
28175;SHT30;59417;44.788;10.334;2023-12-28T02:05:34;10.34;80.98
28175;SHT30;59417;44.788;10.334;2023-12-28T02:08:04;10.26;81.36
28175;SHT30;59417;44.788;10.334;2023-12-28T02:10:31;10.13;81.91
28175;SHT30;59417;44.788;10.334;2023-12-28T02:13:11;10.33;81.29
28175;SHT30;59417;44.788;10.334;2023-12-28T02:15:39;10.16;81.77
28175;SHT30;59417;44.788;10.334;2023-12-28T02:18:12;10.24;81.62
28175;SHT30;59417;44.788;10.334;2023-12-28T02:20:40;10.16;82.10
28175;SHT30;59417;44.788;10.334;2023-12-28T02:23:11;10.33;81.33
28175;SHT30;59417;44.788;10.334;2023-12-28T02:25:39;10.00;82.52
28175;SHT30;59417;44.788;10.334;2023-12-28T02:28:18;9.99;82.75
28175;SHT30;59417;44.788;10.334;2023-12-28T02:30:48;9.86;83.24
28175;SHT30;59417;44.788;10.334;2023-12-28T02:33:29;10.14;82.67
28175;SHT30;59417;44.788;10.334;2023-12-28T02:36:05;10.02;82.85
28175;SHT30;59417;44.788;10.334;2023-12-28T02:38:37;10.09;82.66
28175;SHT30;59417;44.788;10.334;2023-12-28T02:41:13;10.06;82.38
28175;SHT30;59417;44.788;10.334;2023-12-28T02:43:41;10.38;81.33
28175;SHT30;59417;44.788;10.334;2023-12-28T02:46:08;10.24;81.73
28175;SHT30;59417;44.788;10.334;2023-12-28T02:48:39;10.10;82.45
28175;SHT30;59417;44.788;10.334;2023-12-28T02:51:06;10.20;82.23
28175;SHT30;59417;44.788;10.334;2023-12-28T02:53:33;10.34;81.39
28175;SHT30;59417;44.788;10.334;2023-12-28T02:56:05;10.14;81.95
28175;SHT30;59417;44.788;10.334;2023-12-28T02:58:33;10.41;81.15
28175;SHT30;59417;44.788;10.334;2023-12-28T03:01:04;10.20;81.61
28175;SHT30;59417;44.788;10.334;2023-12-28T03:03:31;10.10;82.53
28175;SHT30;59417;44.788;10.334;2023-12-28T03:05:58;10.14;82.07
28175;SHT30;59417;44.788;10.334;2023-12-28T03:08:31;10.14;82.37
28175;SHT30;59417;44.788;10.334;2023-12-28T03:10:59;10.13;82.45
28175;SHT30;59417;44.788;10.334;2023-12-28T03:13:26;10.10;82.19
28175;SHT30;59417;44.788;10.334;2023-12-28T03:15:53;10.09;82.45
28175;SHT30;59417;44.788;10.334;2023-12-28T03:18:23;10.24;82.10
28175;SHT30;59417;44.788;10.334;2023-12-28T03:20:52;10.29;81.59
28175;SHT30;59417;44.788;10.334;2023-12-28T03:23:18;10.29;81.75
28175;SHT30;59417;44.788;10.334;2023-12-28T03:25:47;10.13;82.63
28175;SHT30;59417;44.788;10.334;2023-12-28T03:28:22;10.36;81.69
28175;SHT30;59417;44.788;10.334;2023-12-28T03:30:51;10.30;81.86
28175;SHT30;59417;44.788;10.334;2023-12-28T03:33:19;10.17;82.33
28175;SHT30;59417;44.788;10.334;2023-12-28T03:35:46;10.24;81.75
28175;SHT30;59417;44.788;10.334;2023-12-28T03:38:16;10.08;82.32
28175;SHT30;59417;44.788;10.334;2023-12-28T03:40:44;10.21;82.04
28175;SHT30;59417;44.788;10.334;2023-12-28T03:43:18;10.17;81.98
28175;SHT30;59417;44.788;10.334;2023-12-28T03:45:46;10.03;82.79
28175;SHT30;59417;44.788;10.334;2023-12-28T03:48:13;9.95;83.22
28175;SHT30;59417;44.788;10.334;2023-12-28T03:50:41;9.98;83.21
28175;SHT30;59417;44.788;10.334;2023-12-28T03:53:10;9.90;83.39
28175;SHT30;59417;44.788;10.334;2023-12-28T03:55:37;9.93;83.60
28175;SHT30;59417;44.788;10.334;2023-12-28T03:58:14;9.96;83.48
28175;SHT30;59417;44.788;10.334;2023-12-28T04:00:43;9.89;83.50
28175;SHT30;59417;44.788;10.334;2023-12-28T04:03:11;10.03;83.22
28175;SHT30;59417;44.788;10.334;2023-12-28T04:05:43;9.90;83.02
28175;SHT30;59417;44.788;10.334;2023-12-28T04:08:12;9.95;82.70
28175;SHT30;59417;44.788;10.334;2023-12-28T04:10:41;10.05;82.24
28175;SHT30;59417;44.788;10.334;2023-12-28T04:13:08;10.10;82.07
28175;SHT30;59417;44.788;10.334;2023-12-28T04:15:41;9.99;81.79
28175;SHT30;59417;44.788;10.334;2023-12-28T04:18:13;9.89;82.46
28175;SHT30;59417;44.788;10.334;2023-12-28T04:20:44;9.89;82.73
28175;SHT30;59417;44.788;10.334;2023-12-28T04:23:19;9.85;82.78
28175;SHT30;59417;44.788;10.334;2023-12-28T04:25:53;9.99;81.63
28175;SHT30;59417;44.788;10.334;2023-12-28T04:28:27;9.89;81.95
28175;SHT30;59417;44.788;10.334;2023-12-28T04:31:01;9.89;82.05
28175;SHT30;59417;44.788;10.334;2023-12-28T04:33:33;9.93;82.05
28175;SHT30;59417;44.788;10.334;2023-12-28T04:36:09;10.29;80.60
28175;SHT30;59417;44.788;10.334;2023-12-28T04:38:37;10.09;81.05
28175;SHT30;59417;44.788;10.334;2023-12-28T04:41:05;9.95;81.69
28175;SHT30;59417;44.788;10.334;2023-12-28T04:43:34;9.93;81.90
28175;SHT30;59417;44.788;10.334;2023-12-28T04:46:07;9.89;82.04
28175;SHT30;59417;44.788;10.334;2023-12-28T04:48:35;10.12;81.73
28175;SHT30;59417;44.788;10.334;2023-12-28T04:51:07;10.17;81.25
28175;SHT30;59417;44.788;10.334;2023-12-28T04:53:35;10.40;80.09
28175;SHT30;59417;44.788;10.334;2023-12-28T04:56:04;10.27;80.83
28175;SHT30;59417;44.788;10.334;2023-12-28T04:58:36;10.26;81.15
28175;SHT30;59417;44.788;10.334;2023-12-28T05:01:06;10.24;81.56
28175;SHT30;59417;44.788;10.334;2023-12-28T05:03:35;10.09;82.00
28175;SHT30;59417;44.788;10.334;2023-12-28T05:06:04;10.20;81.71
28175;SHT30;59417;44.788;10.334;2023-12-28T05:08:33;10.08;82.30
28175;SHT30;59417;44.788;10.334;2023-12-28T05:11:05;10.19;82.25
28175;SHT30;59417;44.788;10.334;2023-12-28T05:13:32;10.16;82.02
28175;SHT30;59417;44.788;10.334;2023-12-28T05:16:02;10.00;82.71
28175;SHT30;59417;44.788;10.334;2023-12-28T05:18:33;10.10;82.47
28175;SHT30;59417;44.788;10.334;2023-12-28T05:21:02;10.13;82.22
28175;SHT30;59417;44.788;10.334;2023-12-28T05:23:34;10.06;82.48
28175;SHT30;59417;44.788;10.334;2023-12-28T05:26:15;10.37;81.26
28175;SHT30;59417;44.788;10.334;2023-12-28T05:28:44;10.17;81.83
28175;SHT30;59417;44.788;10.334;2023-12-28T05:31:12;10.10;82.22
28175;SHT30;59417;44.788;10.334;2023-12-28T05:33:39;10.00;82.64
28175;SHT30;59417;44.788;10.334;2023-12-28T05:36:19;9.90;83.10
28175;SHT30;59417;44.788;10.334;2023-12-28T05:38:56;10.05;82.92
28175;SHT30;59417;44.788;10.334;2023-12-28T05:41:27;10.17;82.28
28175;SHT30;59417;44.788;10.334;2023-12-28T05:43:54;10.05;82.67
28175;SHT30;59417;44.788;10.334;2023-12-28T05:46:21;10.09;82.76
28175;SHT30;59417;44.788;10.334;2023-12-28T05:48:49;10.24;81.53
28175;SHT30;59417;44.788;10.334;2023-12-28T05:51:21;10.03;82.16
28175;SHT30;59417;44.788;10.334;2023-12-28T05:53:50;9.69;83.48
28175;SHT30;59417;44.788;10.334;2023-12-28T05:56:17;9.61;84.13
28175;SHT30;59417;44.788;10.334;2023-12-28T05:58:43;9.72;83.64
28175;SHT30;59417;44.788;10.334;2023-12-28T06:01:09;9.78;83.27
28175;SHT30;59417;44.788;10.334;2023-12-28T06:03:36;9.70;83.06
28175;SHT30;59417;44.788;10.334;2023-12-28T06:06:02;9.68;83.25
28175;SHT30;59417;44.788;10.334;2023-12-28T06:08:34;9.68;82.89
28175;SHT30;59417;44.788;10.334;2023-12-28T06:11:00;9.66;82.94
28175;SHT30;59417;44.788;10.334;2023-12-28T06:13:28;9.57;82.88
28175;SHT30;59417;44.788;10.334;2023-12-28T06:15:55;9.52;82.78
28175;SHT30;59417;44.788;10.334;2023-12-28T06:18:22;9.54;82.54
28175;SHT30;59417;44.788;10.334;2023-12-28T06:20:48;9.44;82.51
28175;SHT30;59417;44.788;10.334;2023-12-28T06:23:23;9.49;82.67
28175;SHT30;59417;44.788;10.334;2023-12-28T06:25:56;9.38;82.74
28175;SHT30;59417;44.788;10.334;2023-12-28T06:28:29;9.30;82.93
28175;SHT30;59417;44.788;10.334;2023-12-28T06:31:00;9.38;82.51
28175;SHT30;59417;44.788;10.334;2023-12-28T06:33:34;9.61;81.37
28175;SHT30;59417;44.788;10.334;2023-12-28T06:36:17;9.72;80.99
28175;SHT30;59417;44.788;10.334;2023-12-28T06:38:48;9.44;82.08
28175;SHT30;59417;44.788;10.334;2023-12-28T06:41:19;9.41;82.28
28175;SHT30;59417;44.788;10.334;2023-12-28T06:43:46;9.25;82.39
28175;SHT30;59417;44.788;10.334;2023-12-28T06:46:13;9.24;82.49
28175;SHT30;59417;44.788;10.334;2023-12-28T06:48:45;9.24;82.31
28175;SHT30;59417;44.788;10.334;2023-12-28T06:51:22;9.30;81.97
28175;SHT30;59417;44.788;10.334;2023-12-28T06:53:53;9.21;81.43
28175;SHT30;59417;44.788;10.334;2023-12-28T06:56:25;9.20;81.41
28175;SHT30;59417;44.788;10.334;2023-12-28T06:58:52;9.48;80.32
28175;SHT30;59417;44.788;10.334;2023-12-28T07:01:20;9.41;81.01
28175;SHT30;59417;44.788;10.334;2023-12-28T07:03:45;9.57;80.51
28175;SHT30;59417;44.788;10.334;2023-12-28T07:06:16;9.39;81.34
28175;SHT30;59417;44.788;10.334;2023-12-28T07:08:42;9.14;82.02
28175;SHT30;59417;44.788;10.334;2023-12-28T07:11:12;9.11;82.51
28175;SHT30;59417;44.788;10.334;2023-12-28T07:13:39;9.18;82.46
28175;SHT30;59417;44.788;10.334;2023-12-28T07:16:06;9.24;82.69
28175;SHT30;59417;44.788;10.334;2023-12-28T07:18:34;9.57;81.94
28175;SHT30;59417;44.788;10.334;2023-12-28T07:21:03;9.68;81.70
28175;SHT30;59417;44.788;10.334;2023-12-28T07:23:32;9.63;81.43
28175;SHT30;59417;44.788;10.334;2023-12-28T07:25:59;9.68;81.67
28175;SHT30;59417;44.788;10.334;2023-12-28T07:28:25;9.37;82.73
28175;SHT30;59417;44.788;10.334;2023-12-28T07:30:53;9.25;83.31
28175;SHT30;59417;44.788;10.334;2023-12-28T07:33:20;9.24;83.34
28175;SHT30;59417;44.788;10.334;2023-12-28T07:35:47;9.51;81.84
28175;SHT30;59417;44.788;10.334;2023-12-28T07:38:17;9.70;81.61
28175;SHT30;59417;44.788;10.334;2023-12-28T07:40:51;9.62;81.32
28175;SHT30;59417;44.788;10.334;2023-12-28T07:43:19;9.63;81.52
28175;SHT30;59417;44.788;10.334;2023-12-28T07:45:45;9.63;81.51
28175;SHT30;59417;44.788;10.334;2023-12-28T07:48:11;9.59;82.14
28175;SHT30;59417;44.788;10.334;2023-12-28T07:50:37;9.51;82.30
28175;SHT30;59417;44.788;10.334;2023-12-28T07:53:03;9.72;82.35
28175;SHT30;59417;44.788;10.334;2023-12-28T07:55:29;9.68;82.69
28175;SHT30;59417;44.788;10.334;2023-12-28T07:57:57;9.65;83.12
28175;SHT30;59417;44.788;10.334;2023-12-28T08:00:24;9.76;82.68
28175;SHT30;59417;44.788;10.334;2023-12-28T08:02:50;9.83;82.79
28175;SHT30;59417;44.788;10.334;2023-12-28T08:05:18;9.73;83.17
28175;SHT30;59417;44.788;10.334;2023-12-28T08:07:46;9.78;83.31
28175;SHT30;59417;44.788;10.334;2023-12-28T08:10:13;9.76;83.56
28175;SHT30;59417;44.788;10.334;2023-12-28T08:12:40;9.89;83.44
28175;SHT30;59417;44.788;10.334;2023-12-28T08:15:07;10.12;82.60
28175;SHT30;59417;44.788;10.334;2023-12-28T08:17:35;10.24;82.08
28175;SHT30;59417;44.788;10.334;2023-12-28T08:20:05;10.24;82.05
28175;SHT30;59417;44.788;10.334;2023-12-28T08:22:33;10.14;82.85
28175;SHT30;59417;44.788;10.334;2023-12-28T08:24:59;10.29;82.24
28175;SHT30;59417;44.788;10.334;2023-12-28T08:27:26;10.44;81.20
28175;SHT30;59417;44.788;10.334;2023-12-28T08:29:53;10.40;81.46
28175;SHT30;59417;44.788;10.334;2023-12-28T08:32:19;10.30;82.23
28175;SHT30;59417;44.788;10.334;2023-12-28T08:34:47;10.50;81.72
28175;SHT30;59417;44.788;10.334;2023-12-28T08:37:13;10.63;81.55
28175;SHT30;59417;44.788;10.334;2023-12-28T08:39:40;10.71;80.81
28175;SHT30;59417;44.788;10.334;2023-12-28T08:42:06;10.87;80.82
28175;SHT30;59417;44.788;10.334;2023-12-28T08:44:33;10.85;80.74
28175;SHT30;59417;44.788;10.334;2023-12-28T08:47:01;10.81;81.37
28175;SHT30;59417;44.788;10.334;2023-12-28T08:49:28;10.68;82.32
28175;SHT30;59417;44.788;10.334;2023-12-28T08:51:55;10.82;81.89
28175;SHT30;59417;44.788;10.334;2023-12-28T08:54:27;10.88;81.02
28175;SHT30;59417;44.788;10.334;2023-12-28T08:56:53;10.89;81.17
28175;SHT30;59417;44.788;10.334;2023-12-28T08:59:20;10.81;81.62
28175;SHT30;59417;44.788;10.334;2023-12-28T09:01:47;10.87;81.77
28175;SHT30;59417;44.788;10.334;2023-12-28T09:04:15;11.09;80.57
28175;SHT30;59417;44.788;10.334;2023-12-28T09:06:56;11.05;80.88
28175;SHT30;59417;44.788;10.334;2023-12-28T09:09:22;11.13;80.41
28175;SHT30;59417;44.788;10.334;2023-12-28T09:11:49;11.19;80.19
28175;SHT30;59417;44.788;10.334;2023-12-28T09:14:36;11.20;80.10
28175;SHT30;59417;44.788;10.334;2023-12-28T09:17:07;11.11;80.35
28175;SHT30;59417;44.788;10.334;2023-12-28T09:19:42;11.01;81.01
28175;SHT30;59417;44.788;10.334;2023-12-28T09:22:09;11.18;80.51
28175;SHT30;59417;44.788;10.334;2023-12-28T09:24:36;11.27;80.32
28175;SHT30;59417;44.788;10.334;2023-12-28T09:27:02;11.27;80.20
28175;SHT30;59417;44.788;10.334;2023-12-28T09:29:28;11.29;80.44
28175;SHT30;59417;44.788;10.334;2023-12-28T09:31:56;11.26;80.32
28175;SHT30;59417;44.788;10.334;2023-12-28T09:34:24;11.39;80.01
28175;SHT30;59417;44.788;10.334;2023-12-28T09:36:53;11.40;79.95
28175;SHT30;59417;44.788;10.334;2023-12-28T09:39:28;11.46;80.03
28175;SHT30;59417;44.788;10.334;2023-12-28T09:42:09;11.38;80.19
28175;SHT30;59417;44.788;10.334;2023-12-28T09:44:40;11.30;80.30
28175;SHT30;59417;44.788;10.334;2023-12-28T09:47:11;11.23;80.72
28175;SHT30;59417;44.788;10.334;2023-12-28T09:49:39;11.30;80.40
28175;SHT30;59417;44.788;10.334;2023-12-28T09:52:06;11.09;81.25
28175;SHT30;59417;44.788;10.334;2023-12-28T09:54:34;11.40;80.37
28175;SHT30;59417;44.788;10.334;2023-12-28T09:57:03;11.42;80.46
28175;SHT30;59417;44.788;10.334;2023-12-28T09:59:33;11.57;79.96
28175;SHT30;59417;44.788;10.334;2023-12-28T10:02:04;11.56;80.00
28175;SHT30;59417;44.788;10.334;2023-12-28T10:04:34;11.42;81.19
28175;SHT30;59417;44.788;10.334;2023-12-28T10:07:08;11.66;79.17
28175;SHT30;59417;44.788;10.334;2023-12-28T10:09:43;11.63;79.62
28175;SHT30;59417;44.788;10.334;2023-12-28T10:12:17;11.73;79.97
28175;SHT30;59417;44.788;10.334;2023-12-28T10:14:53;11.71;80.61
28175;SHT30;59417;44.788;10.334;2023-12-28T10:17:21;11.91;79.66
28175;SHT30;59417;44.788;10.334;2023-12-28T10:20:03;11.77;79.27
28175;SHT30;59417;44.788;10.334;2023-12-28T10:22:41;11.74;79.76
28175;SHT30;59417;44.788;10.334;2023-12-28T10:25:15;11.66;80.12
28175;SHT30;59417;44.788;10.334;2023-12-28T10:27:49;11.67;80.09
28175;SHT30;59417;44.788;10.334;2023-12-28T10:30:30;11.69;80.46
28175;SHT30;59417;44.788;10.334;2023-12-28T10:33:01;11.90;80.20
28175;SHT30;59417;44.788;10.334;2023-12-28T10:35:34;11.77;80.16
28175;SHT30;59417;44.788;10.334;2023-12-28T10:38:07;11.90;80.54
28175;SHT30;59417;44.788;10.334;2023-12-28T10:40:53;12.17;79.08
28175;SHT30;59417;44.788;10.334;2023-12-28T10:46:32;12.22;78.34
28175;SHT30;59417;44.788;10.334;2023-12-28T10:49:21;12.29;78.63
28175;SHT30;59417;44.788;10.334;2023-12-28T10:51:51;12.51;78.52
28175;SHT30;59417;44.788;10.334;2023-12-28T10:56:56;12.82;77.32
28175;SHT30;59417;44.788;10.334;2023-12-28T11:00:25;13.02;77.13
28175;SHT30;59417;44.788;10.334;2023-12-28T11:02:47;12.99;75.69
28175;SHT30;59417;44.788;10.334;2023-12-28T11:05:19;12.93;75.64
28175;SHT30;59417;44.788;10.334;2023-12-28T11:07:48;13.04;75.83
28175;SHT30;59417;44.788;10.334;2023-12-28T11:10:25;13.14;74.97
28175;SHT30;59417;44.788;10.334;2023-12-28T11:13:03;13.26;74.82
28175;SHT30;59417;44.788;10.334;2023-12-28T11:15:39;13.23;75.20
28175;SHT30;59417;44.788;10.334;2023-12-28T11:18:18;13.35;75.12
28175;SHT30;59417;44.788;10.334;2023-12-28T11:20:46;13.51;74.43
28175;SHT30;59417;44.788;10.334;2023-12-28T11:23:14;13.44;74.37
28175;SHT30;59417;44.788;10.334;2023-12-28T11:25:40;13.34;74.47
28175;SHT30;59417;44.788;10.334;2023-12-28T11:28:10;13.23;75.52
28175;SHT30;59417;44.788;10.334;2023-12-28T11:30:37;13.33;75.93
28175;SHT30;59417;44.788;10.334;2023-12-28T11:33:10;13.43;75.67
28175;SHT30;59417;44.788;10.334;2023-12-28T11:35:39;13.51;75.53
28175;SHT30;59417;44.788;10.334;2023-12-28T11:38:09;13.17;76.14
28175;SHT30;59417;44.788;10.334;2023-12-28T11:41:03;13.02;76.38
28175;SHT30;59417;44.788;10.334;2023-12-28T11:43:29;12.99;75.95
28175;SHT30;59417;44.788;10.334;2023-12-28T11:46:01;12.93;76.38
28175;SHT30;59417;44.788;10.334;2023-12-28T11:54:54;12.87;76.80
28175;SHT30;59417;44.788;10.334;2023-12-28T11:57:21;12.80;77.07
28175;SHT30;59417;44.788;10.334;2023-12-28T12:00:01;12.72;77.14
28175;SHT30;59417;44.788;10.334;2023-12-28T12:02:33;12.55;77.38
28175;SHT30;59417;44.788;10.334;2023-12-28T12:05:00;12.59;77.71
28175;SHT30;59417;44.788;10.334;2023-12-28T12:07:32;12.53;77.31
28175;SHT30;59417;44.788;10.334;2023-12-28T12:10:07;12.58;77.86
28175;SHT30;59417;44.788;10.334;2023-12-28T12:12:35;12.68;77.52
28175;SHT30;59417;44.788;10.334;2023-12-28T12:15:16;12.59;77.71
28175;SHT30;59417;44.788;10.334;2023-12-28T12:17:50;12.73;78.31
28175;SHT30;59417;44.788;10.334;2023-12-28T12:20:17;12.96;78.00
28175;SHT30;59417;44.788;10.334;2023-12-28T12:22:52;12.97;75.64
28175;SHT30;59417;44.788;10.334;2023-12-28T12:25:26;12.83;76.04
28175;SHT30;59417;44.788;10.334;2023-12-28T12:28:06;12.80;76.54
28175;SHT30;59417;44.788;10.334;2023-12-28T12:30:35;12.80;76.74
28175;SHT30;59417;44.788;10.334;2023-12-28T12:33:07;12.77;76.63
28175;SHT30;59417;44.788;10.334;2023-12-28T12:35:44;12.84;76.80
28175;SHT30;59417;44.788;10.334;2023-12-28T12:38:12;12.80;77.11
28175;SHT30;59417;44.788;10.334;2023-12-28T12:40:41;12.73;77.44
28175;SHT30;59417;44.788;10.334;2023-12-28T12:43:08;12.59;77.22
28175;SHT30;59417;44.788;10.334;2023-12-28T12:45:43;12.37;78.20
28175;SHT30;59417;44.788;10.334;2023-12-28T12:48:12;12.48;77.78
28175;SHT30;59417;44.788;10.334;2023-12-28T12:50:39;12.42;77.37
28175;SHT30;59417;44.788;10.334;2023-12-28T12:53:11;12.41;77.19
28175;SHT30;59417;44.788;10.334;2023-12-28T12:55:44;12.46;77.77
28175;SHT30;59417;44.788;10.334;2023-12-28T12:58:15;12.62;78.01
28175;SHT30;59417;44.788;10.334;2023-12-28T13:00:48;12.76;76.98
28175;SHT30;59417;44.788;10.334;2023-12-28T13:03:27;12.96;76.33
28175;SHT30;59417;44.788;10.334;2023-12-28T13:05:57;12.96;75.53
28175;SHT30;59417;44.788;10.334;2023-12-28T13:08:24;12.95;76.46
28175;SHT30;59417;44.788;10.334;2023-12-28T13:10:52;13.06;75.88
28175;SHT30;59417;44.788;10.334;2023-12-28T13:13:19;13.20;74.63
28175;SHT30;59417;44.788;10.334;2023-12-28T13:15:45;13.02;75.30
28175;SHT30;59417;44.788;10.334;2023-12-28T13:18:11;12.96;75.64
28175;SHT30;59417;44.788;10.334;2023-12-28T13:20:42;12.82;75.72
28175;SHT30;59417;44.788;10.334;2023-12-28T13:23:12;12.60;76.84
28175;SHT30;59417;44.788;10.334;2023-12-28T13:25:42;12.44;77.62
28175;SHT30;59417;44.788;10.334;2023-12-28T13:28:13;12.58;76.87
28175;SHT30;59417;44.788;10.334;2023-12-28T13:30:42;12.63;76.91
28175;SHT30;59417;44.788;10.334;2023-12-28T13:33:08;12.53;77.58
28175;SHT30;59417;44.788;10.334;2023-12-28T13:35:35;12.66;76.90
28175;SHT30;59417;44.788;10.334;2023-12-28T13:38:01;12.53;77.50
28175;SHT30;59417;44.788;10.334;2023-12-28T13:40:30;12.84;75.89
28175;SHT30;59417;44.788;10.334;2023-12-28T13:42:59;12.80;75.70
28175;SHT30;59417;44.788;10.334;2023-12-28T13:45:24;12.83;75.54
28175;SHT30;59417;44.788;10.334;2023-12-28T13:47:50;12.84;74.99
28175;SHT30;59417;44.788;10.334;2023-12-28T13:50:19;12.80;75.00
28175;SHT30;59417;44.788;10.334;2023-12-28T13:52:46;12.70;75.85
28175;SHT30;59417;44.788;10.334;2023-12-28T13:55:12;12.73;75.97
28175;SHT30;59417;44.788;10.334;2023-12-28T13:57:38;12.70;76.57
28175;SHT30;59417;44.788;10.334;2023-12-28T14:00:06;12.58;77.19
28175;SHT30;59417;44.788;10.334;2023-12-28T14:02:40;12.53;77.09
28175;SHT30;59417;44.788;10.334;2023-12-28T14:05:06;12.76;76.24
28175;SHT30;59417;44.788;10.334;2023-12-28T14:07:32;12.83;75.69
28175;SHT30;59417;44.788;10.334;2023-12-28T14:09:58;12.80;75.80
28175;SHT30;59417;44.788;10.334;2023-12-28T14:12:24;12.68;75.80
28175;SHT30;59417;44.788;10.334;2023-12-28T14:14:51;12.58;76.11
28175;SHT30;59417;44.788;10.334;2023-12-28T14:17:18;12.63;76.14
28175;SHT30;59417;44.788;10.334;2023-12-28T14:19:46;12.55;76.45
28175;SHT30;59417;44.788;10.334;2023-12-28T14:22:13;12.32;77.52
28175;SHT30;59417;44.788;10.334;2023-12-28T14:24:44;12.25;78.12
28175;SHT30;59417;44.788;10.334;2023-12-28T14:27:10;12.38;77.36
28175;SHT30;59417;44.788;10.334;2023-12-28T14:29:38;12.46;77.04
28175;SHT30;59417;44.788;10.334;2023-12-28T14:32:05;12.60;76.58
28175;SHT30;59417;44.788;10.334;2023-12-28T14:34:34;12.51;76.82
28175;SHT30;59417;44.788;10.334;2023-12-28T14:37:04;12.52;76.80
28175;SHT30;59417;44.788;10.334;2023-12-28T14:39:30;12.53;76.91
28175;SHT30;59417;44.788;10.334;2023-12-28T14:41:56;12.46;77.11
28175;SHT30;59417;44.788;10.334;2023-12-28T14:44:24;12.44;77.42
28175;SHT30;59417;44.788;10.334;2023-12-28T14:46:54;12.44;76.87
28175;SHT30;59417;44.788;10.334;2023-12-28T14:49:33;12.32;77.42
28175;SHT30;59417;44.788;10.334;2023-12-28T14:51:59;12.29;77.49
28175;SHT30;59417;44.788;10.334;2023-12-28T14:54:25;12.29;77.11
28175;SHT30;59417;44.788;10.334;2023-12-28T14:57:06;12.29;77.29
28175;SHT30;59417;44.788;10.334;2023-12-28T14:59:35;12.27;77.53
28175;SHT30;59417;44.788;10.334;2023-12-28T15:02:03;12.25;77.76
28175;SHT30;59417;44.788;10.334;2023-12-28T15:04:32;12.27;77.98
28175;SHT30;59417;44.788;10.334;2023-12-28T15:07:07;12.16;78.63
28175;SHT30;59417;44.788;10.334;2023-12-28T15:09:35;12.17;78.73
28175;SHT30;59417;44.788;10.334;2023-12-28T15:12:09;12.11;79.10
28175;SHT30;59417;44.788;10.334;2023-12-28T15:14:40;12.11;79.05
28175;SHT30;59417;44.788;10.334;2023-12-28T15:17:06;12.05;79.24
28175;SHT30;59417;44.788;10.334;2023-12-28T15:19:36;12.04;79.17
28175;SHT30;59417;44.788;10.334;2023-12-28T15:22:02;12.08;78.85
28175;SHT30;59417;44.788;10.334;2023-12-28T15:24:27;12.02;78.93
28175;SHT30;59417;44.788;10.334;2023-12-28T15:26:54;12.04;78.88
28175;SHT30;59417;44.788;10.334;2023-12-28T15:29:19;12.04;78.94
28175;SHT30;59417;44.788;10.334;2023-12-28T15:31:46;11.97;79.13
28175;SHT30;59417;44.788;10.334;2023-12-28T15:34:15;11.94;79.31
28175;SHT30;59417;44.788;10.334;2023-12-28T15:36:42;11.90;79.79
28175;SHT30;59417;44.788;10.334;2023-12-28T15:39:11;11.93;79.38
28175;SHT30;59417;44.788;10.334;2023-12-28T15:41:44;11.94;79.60
28175;SHT30;59417;44.788;10.334;2023-12-28T15:44:12;11.94;79.61
28175;SHT30;59417;44.788;10.334;2023-12-28T15:46:41;12.01;79.40
28175;SHT30;59417;44.788;10.334;2023-12-28T15:49:09;11.90;79.88
28175;SHT30;59417;44.788;10.334;2023-12-28T15:51:41;11.86;80.08